Weather at Saint Louis Airport

Public forecast

Using degrees Celsius for public forecast. Weather courtesy of forecast.io.

Current aviation weather report (METAR) for Saint Louis Airport

Report is more than 6 hours old.

2022/11/14 15:00 (retrieved 2 years ago)

GOSS 141500Z 34008KT 250V360 CAVOK 32/20 Q1012

Aviation forecast (TAF) for Saint Louis Airport

Forecast is more than 12 hours old.

2023/02/22 18:51 (retrieved 1 year ago)

TAF GOSS 221700Z 2218/2318 34010KT 8000 NSC